Time;durP1;ratioP1;P1;durP2;ratioP2;P2;SDS_P1;SDS_P2;PMS_P1;PMS_P2;Temp;Humidity;BMP_temperature;BMP_pressure;BME280_temperature;BME280_humidity;BME280_pressure;Samples;Min_cycle;Max_cycle;Signal;HPM_P1;HPM_P2
2021/04/27 00:01:51;;;;;;;3.75;2.08;;;6.70;48.70;;;;;;5071073;28;20028;-65
2021/04/27 00:04:16;;;;;;;4.80;2.63;;;6.50;49.30;;;;;;5072384;28;20021;-66
2021/04/27 00:06:42;;;;;;;7.70;2.92;;;6.50;48.70;;;;;;5070767;28;20024;-63
2021/04/27 00:09:08;;;;;;;5.47;2.88;;;6.50;48.90;;;;;;5072740;28;20024;-66
2021/04/27 00:11:35;;;;;;;8.75;3.08;;;6.50;49.20;;;;;;5072090;28;20043;-67
2021/04/27 00:14:02;;;;;;;4.70;2.28;;;6.50;48.80;;;;;;5072658;28;20474;-63
2021/04/27 00:16:28;;;;;;;2.53;1.92;;;6.50;48.70;;;;;;5072345;28;20032;-63
2021/04/27 00:18:54;;;;;;;3.33;1.75;;;6.40;48.80;;;;;;5071607;28;20032;-63
2021/04/27 00:21:19;;;;;;;3.30;1.65;;;6.40;49.10;;;;;;5072373;28;20029;-64
2021/04/27 00:23:45;;;;;;;4.97;2.08;;;6.30;49.20;;;;;;5072075;28;20032;-66
2021/04/27 00:26:11;;;;;;;8.13;1.98;;;6.20;49.30;;;;;;5071732;28;20028;-63
2021/04/27 00:28:36;;;;;;;5.40;1.83;;;6.20;50.10;;;;;;5071835;28;20024;-66
2021/04/27 00:31:02;;;;;;;2.72;1.90;;;6.20;50.20;;;;;;5072299;28;20063;-62
2021/04/27 00:33:28;;;;;;;3.78;1.83;;;6.10;50.00;;;;;;5072439;28;20398;-63
2021/04/27 00:35:53;;;;;;;2.55;1.73;;;6.00;50.40;;;;;;5070105;28;20032;-63
2021/04/27 00:38:19;;;;;;;3.80;1.80;;;6.00;50.50;;;;;;5071352;28;20378;-63
2021/04/27 00:40:45;;;;;;;3.17;1.88;;;5.90;50.90;;;;;;5071257;28;20032;-62
2021/04/27 00:43:11;;;;;;;4.28;1.50;;;5.80;51.40;;;;;;5072314;28;20474;-62
2021/04/27 00:45:37;;;;;;;4.97;1.90;;;5.80;51.70;;;;;;5071454;28;20035;-66
2021/04/27 00:48:03;;;;;;;3.70;2.15;;;5.70;52.20;;;;;;5062540;28;20378;-62
2021/04/27 00:50:30;;;;;;;3.22;1.75;;;;;;;;;;5071918;28;20040;-64
2021/04/27 00:52:58;;;;;;;2.30;1.80;;;5.50;52.70;;;;;;5065497;28;20024;-63
2021/04/27 00:55:24;;;;;;;4.30;1.85;;;5.50;53.60;;;;;;5062219;28;20657;-62
2021/04/27 00:57:51;;;;;;;5.72;1.80;;;5.40;54.50;;;;;;5070367;28;20037;-66
2021/04/27 01:00:21;;;;;;;2.65;1.90;;;5.40;54.80;;;;;;5072099;28;20032;-64
2021/04/27 01:02:47;;;;;;;5.80;2.20;;;5.30;55.10;;;;;;5071244;28;20530;-63
2021/04/27 01:05:16;;;;;;;4.57;2.00;;;5.30;55.70;;;;;;5071842;28;20036;-63
2021/04/27 01:08:13;;;;;;;7.20;2.35;;;5.20;55.90;;;;;;5070853;28;20036;-62
2021/04/27 01:11:03;;;;;;;3.55;1.92;;;5.10;56.50;;;;;;5071264;28;20036;-67
2021/04/27 01:13:42;;;;;;;2.17;1.75;;;5.10;56.70;;;;;;5072217;28;20031;-63
2021/04/27 01:16:09;;;;;;;2.92;2.08;;;5.10;57.10;;;;;;5071878;28;20362;-63
2021/04/27 01:18:39;;;;;;;5.13;2.13;;;5.00;57.20;;;;;;5071683;28;20070;-62
2021/04/27 01:21:05;;;;;;;3.13;2.07;;;4.90;57.80;;;;;;5071193;28;20017;-63
2021/04/27 01:23:45;;;;;;;3.22;1.95;;;4.90;57.90;;;;;;5071822;28;20074;-62
2021/04/27 01:26:29;;;;;;;6.43;1.80;;;4.80;58.00;;;;;;5071311;28;20347;-63
2021/04/27 01:28:55;;;;;;;4.55;2.00;;;4.70;59.00;;;;;;5071039;28;20033;-65
2021/04/27 01:31:21;;;;;;;4.85;1.75;;;4.70;58.50;;;;;;5071633;28;20028;-62
2021/04/27 01:33:48;;;;;;;3.10;1.88;;;4.60;58.40;;;;;;5070868;28;20086;-63
2021/04/27 01:36:14;;;;;;;4.72;2.08;;;4.60;58.30;;;;;;5071392;28;20028;-64
2021/04/27 01:38:41;;;;;;;4.57;2.20;;;4.50;58.50;;;;;;5069365;28;20063;-68
2021/04/27 01:41:08;;;;;;;4.97;2.65;;;4.50;58.90;;;;;;5071374;28;20409;-65
2021/04/27 01:43:34;;;;;;;3.38;1.98;;;4.50;59.30;;;;;;5071343;28;20031;-61
2021/04/27 01:46:05;;;;;;;7.72;2.10;;;4.50;59.60;;;;;;5070731;28;20032;-64
2021/04/27 01:48:33;;;;;;;4.80;1.90;;;4.40;59.00;;;;;;5062500;28;20036;-64
2021/04/27 01:50:59;;;;;;;3.40;2.08;;;4.40;58.80;;;;;;5071347;28;20040;-65
2021/04/27 01:53:25;;;;;;;5.43;2.63;;;4.40;58.90;;;;;;5074921;28;20039;-63
2021/04/27 01:55:50;;;;;;;6.93;1.73;;;4.40;58.90;;;;;;5073059;28;20036;-65
2021/04/27 01:58:17;;;;;;;5.03;2.03;;;4.40;59.00;;;;;;5074892;28;20083;-62
2021/04/27 02:00:43;;;;;;;9.30;2.45;;;4.30;60.10;;;;;;5073072;28;20032;-64
2021/04/27 02:03:09;;;;;;;3.95;2.00;;;4.30;60.20;;;;;;5075141;28;20028;-66
2021/04/27 02:05:36;;;;;;;6.38;2.50;;;4.30;60.30;;;;;;5075208;28;20495;-62
2021/04/27 02:08:01;;;;;;;4.43;2.20;;;4.30;60.50;;;;;;5073672;28;20507;-62
2021/04/27 02:10:28;;;;;;;3.40;1.63;;;4.30;60.50;;;;;;5075261;28;20111;-65
2021/04/27 02:12:57;;;;;;;3.63;2.05;;;4.30;60.70;;;;;;5073986;28;20485;-63
2021/04/27 02:15:24;;;;;;;4.50;1.97;;;4.20;60.80;;;;;;5075086;28;20375;-63
2021/04/27 02:17:54;;;;;;;3.65;2.03;;;4.20;61.40;;;;;;5074098;28;20033;-61
2021/04/27 02:20:24;;;;;;;;;;;4.10;61.40;;;;;;5075437;28;20039;-60
2021/04/27 02:22:49;;;;;;;4.70;2.08;;;4.10;61.70;;;;;;5072639;28;19908;-62
2021/04/27 02:25:16;;;;;;;5.28;2.33;;;4.00;61.70;;;;;;5074264;28;20028;-60
2021/04/27 02:27:44;;;;;;;4.60;2.17;;;4.00;61.90;;;;;;5073866;28;20024;-65
2021/04/27 02:30:16;;;;;;;4.88;2.40;;;4.00;62.30;;;;;;5071294;28;20064;-60
2021/04/27 02:32:43;;;;;;;4.75;2.53;;;4.00;62.40;;;;;;5073865;28;20028;-64
2021/04/27 02:35:10;;;;;;;3.80;2.33;;;4.00;62.60;;;;;;5074253;28;20376;-61
2021/04/27 02:37:37;;;;;;;3.92;2.30;;;4.00;62.70;;;;;;5074281;28;20519;-61
2021/04/27 02:40:05;;;;;;;2.92;1.92;;;3.90;62.90;;;;;;5074044;28;20024;-61
2021/04/27 02:42:34;;;;;;;3.33;2.33;;;3.90;63.20;;;;;;5068542;28;20036;-61
2021/04/27 02:45:00;;;;;;;3.92;2.20;;;3.80;63.60;;;;;;5073044;28;20741;-63
2021/04/27 02:47:25;;;;;;;6.10;3.13;;;3.80;63.60;;;;;;5068671;28;20074;-60
2021/04/27 02:49:51;;;;;;;3.47;2.30;;;3.80;63.80;;;;;;5073496;28;20078;-60
2021/04/27 02:52:17;;;;;;;4.30;1.95;;;3.70;63.80;;;;;;5073945;28;20073;-64
2021/04/27 02:54:42;;;;;;;3.78;2.00;;;3.70;63.80;;;;;;5073554;28;20028;-64
2021/04/27 02:57:08;;;;;;;4.90;2.28;;;3.60;63.90;;;;;;5074331;28;20025;-62
2021/04/27 02:59:34;;;;;;;3.75;2.13;;;3.60;64.50;;;;;;5074220;28;20481;-64
2021/04/27 03:01:59;;;;;;;3.10;1.98;;;3.60;64.70;;;;;;5072324;28;20028;-63
2021/04/27 03:04:26;;;;;;;5.85;2.40;;;3.60;64.90;;;;;;5074099;28;20048;-62
2021/04/27 03:06:51;;;;;;;5.25;2.75;;;3.60;65.10;;;;;;5073210;28;20082;-61
2021/04/27 03:09:17;;;;;;;4.95;2.60;;;3.60;65.10;;;;;;5073264;28;20036;-63
2021/04/27 03:11:42;;;;;;;3.75;2.30;;;3.60;65.00;;;;;;5073277;28;20025;-67
2021/04/27 03:14:08;;;;;;;3.53;1.90;;;3.50;65.00;;;;;;5073339;28;20458;-61
2021/04/27 03:16:34;;;;;;;5.65;2.40;;;3.50;64.90;;;;;;5073662;28;20381;-60
2021/04/27 03:18:59;;;;;;;3.08;1.77;;;3.50;65.10;;;;;;5072728;28;20036;-64
2021/04/27 03:21:25;;;;;;;6.25;2.38;;;3.50;65.20;;;;;;5073759;28;20035;-60
2021/04/27 03:23:51;;;;;;;5.60;1.88;;;3.50;65.50;;;;;;5072544;28;20462;-61
2021/04/27 03:26:16;;;;;;;4.57;2.33;;;3.50;65.90;;;;;;5073654;28;20027;-61
2021/04/27 03:28:43;;;;;;;4.55;2.33;;;3.40;65.40;;;;;;5073077;28;20029;-66
2021/04/27 03:31:08;;;;;;;4.22;2.35;;;3.40;65.40;;;;;;5073348;28;20037;-63
2021/04/27 03:33:34;;;;;;;5.45;2.30;;;3.40;65.20;;;;;;5073155;28;20504;-61
2021/04/27 03:36:00;;;;;;;5.30;2.53;;;3.40;65.20;;;;;;5068099;28;20032;-64
2021/04/27 03:38:25;;;;;;;6.68;2.22;;;3.40;65.20;;;;;;5072368;28;20028;-61
2021/04/27 03:40:51;;;;;;;3.88;2.38;;;3.40;65.00;;;;;;5071836;28;20033;-60
2021/04/27 03:43:17;;;;;;;4.72;1.98;;;3.40;65.20;;;;;;5073349;28;20409;-62
2021/04/27 03:45:43;;;;;;;5.00;2.13;;;3.40;65.20;;;;;;5072479;28;20358;-66
2021/04/27 03:48:14;;;;;;;6.25;2.38;;;3.50;65.10;;;;;;5070951;28;20031;-60
2021/04/27 03:50:41;;;;;;;5.45;2.20;;;3.40;65.30;;;;;;5072618;28;20070;-65
2021/04/27 03:53:07;;;;;;;3.08;2.15;;;3.40;65.40;;;;;;5072515;28;20032;-62
2021/04/27 03:55:33;;;;;;;5.35;2.28;;;3.40;65.60;;;;;;5073105;28;20020;-61
2021/04/27 03:57:59;;;;;;;10.82;2.70;;;3.30;65.80;;;;;;5071838;28;20451;-63
2021/04/27 04:00:26;;;;;;;3.63;2.30;;;3.30;66.30;;;;;;5072748;28;20028;-63
2021/04/27 04:02:52;;;;;;;4.07;2.22;;;3.40;66.10;;;;;;5071710;28;20418;-61
2021/04/27 04:05:18;;;;;;;6.80;2.70;;;3.30;65.90;;;;;;5072941;28;20067;-62
2021/04/27 04:07:43;;;;;;;4.60;2.25;;;3.30;66.10;;;;;;5072256;28;20020;-66
2021/04/27 04:10:12;;;;;;;5.15;2.17;;;3.30;66.00;;;;;;5072084;28;20343;-65
2021/04/27 04:12:38;;;;;;;4.43;2.30;;;3.30;66.00;;;;;;5072617;28;20470;-61
2021/04/27 04:15:10;;;;;;;5.22;2.58;;;3.30;66.30;;;;;;5071845;28;20556;-60
2021/04/27 04:17:37;;;;;;;5.70;2.15;;;3.30;66.30;;;;;;5071817;28;20359;-65
2021/04/27 04:20:08;;;;;;;5.05;3.20;;;3.30;66.50;;;;;;5071706;28;20024;-64
2021/04/27 04:22:35;;;;;;;4.18;2.20;;;3.30;66.80;;;;;;5072606;28;20374;-62
2021/04/27 04:25:00;;;;;;;4.32;2.50;;;3.20;66.90;;;;;;5070298;28;20032;-61
2021/04/27 04:27:26;;;;;;;3.53;2.15;;;3.20;67.30;;;;;;5072106;28;20028;-64
2021/04/27 04:29:52;;;;;;;4.25;2.35;;;3.20;67.60;;;;;;5067758;28;20032;-60
2021/04/27 04:32:17;;;;;;;4.55;2.65;;;3.20;67.70;;;;;;5070158;28;20126;-62
2021/04/27 04:34:43;;;;;;;3.47;2.15;;;3.20;67.80;;;;;;5071046;28;20028;-66
2021/04/27 04:37:09;;;;;;;5.20;2.97;;;3.20;67.90;;;;;;5071934;28;20513;-61
2021/04/27 04:39:35;;;;;;;3.92;2.70;;;3.20;68.20;;;;;;5071954;28;20036;-63
2021/04/27 04:42:01;;;;;;;4.55;2.35;;;3.20;68.90;;;;;;5071357;28;20028;-64
2021/04/27 04:44:28;;;;;;;6.40;2.60;;;3.20;68.70;;;;;;5072207;28;20028;-61
2021/04/27 04:46:55;;;;;;;7.78;2.67;;;3.20;68.70;;;;;;5064953;28;20454;-62
2021/04/27 04:49:22;;;;;;;4.95;2.85;;;3.30;69.00;;;;;;5052200;28;20035;-62
2021/04/27 04:51:47;;;;;;;5.40;2.85;;;3.30;69.30;;;;;;5051067;28;20025;-63
2021/04/27 04:54:13;;;;;;;5.10;2.90;;;3.40;69.30;;;;;;5052099;28;20511;-61
2021/04/27 04:56:39;;;;;;;7.07;2.78;;;3.50;68.80;;;;;;5033674;28;20029;-61
2021/04/27 04:59:04;;;;;;;4.25;2.40;;;3.50;68.60;;;;;;5051141;28;20048;-64
2021/04/27 05:01:30;;;;;;;7.93;2.75;;;3.60;67.50;;;;;;5051894;28;20029;-61
2021/04/27 05:03:55;;;;;;;6.18;2.50;;;3.70;67.10;;;;;;5051134;28;20025;-62
2021/04/27 05:06:22;;;;;;;7.68;3.00;;;3.90;66.60;;;;;;5051825;28;20029;-61
2021/04/27 05:08:50;;;;;;;8.05;2.88;;;3.90;66.10;;;;;;5051167;28;20055;-64
2021/04/27 05:11:16;;;;;;;5.13;2.67;;;4.10;64.60;;;;;;5051625;28;20032;-60
2021/04/27 05:13:41;;;;;;;4.90;2.45;;;4.20;64.40;;;;;;5051861;28;20416;-59
2021/04/27 05:16:08;;;;;;;5.68;3.08;;;4.30;64.50;;;;;;5057489;28;20497;-65
2021/04/27 05:18:35;;;;;;;6.82;2.92;;;4.30;64.30;;;;;;5071916;28;20118;-62
2021/04/27 05:21:01;;;;;;;5.78;2.63;;;4.50;63.00;;;;;;5070954;28;20040;-65
2021/04/27 05:23:27;;;;;;;5.82;3.30;;;4.60;62.20;;;;;;5071582;28;20020;-64
2021/04/27 05:25:52;;;;;;;8.85;3.08;;;4.70;61.90;;;;;;5064914;28;20032;-61
2021/04/27 05:28:18;;;;;;;5.72;3.33;;;4.80;62.00;;;;;;5070453;28;20078;-62
2021/04/27 05:30:44;;;;;;;6.35;2.90;;;4.90;62.20;;;;;;5071206;28;20039;-64
2021/04/27 05:33:10;;;;;;;7.22;3.30;;;4.90;61.80;;;;;;5071191;28;20449;-59
2021/04/27 05:35:35;;;;;;;10.18;3.10;;;5.00;61.20;;;;;;5071360;28;20025;-61
2021/04/27 05:38:01;;;;;;;10.75;3.17;;;5.20;60.50;;;;;;5070328;28;20035;-60
2021/04/27 05:40:27;;;;;;;13.93;4.03;;;5.20;60.50;;;;;;5071360;28;20446;-60
2021/04/27 05:42:53;;;;;;;5.85;3.10;;;5.30;60.90;;;;;;5070794;28;20082;-60
2021/04/27 05:45:19;;;;;;;5.72;2.92;;;5.30;60.40;;;;;;5071179;28;20025;-63
2021/04/27 05:47:45;;;;;;;6.88;3.58;;;5.40;60.60;;;;;;5058191;28;20036;-62
2021/04/27 05:50:11;;;;;;;4.57;2.60;;;5.50;60.30;;;;;;5050485;28;20082;-62
2021/04/27 05:52:37;;;;;;;4.40;2.95;;;5.60;59.80;;;;;;5051330;28;20033;-61
2021/04/27 05:55:03;;;;;;;4.95;2.70;;;5.60;59.70;;;;;;5066075;28;20081;-61
2021/04/27 05:57:29;;;;;;;6.32;3.13;;;5.80;58.80;;;;;;5071318;28;20028;-60
2021/04/27 05:59:55;;;;;;;7.53;3.70;;;5.80;58.90;;;;;;5070454;28;20057;-65
2021/04/27 06:02:21;;;;;;;4.75;2.67;;;6.00;58.50;;;;;;5071026;28;20028;-64
2021/04/27 06:04:46;;;;;;;6.50;3.10;;;6.10;57.90;;;;;;5071037;28;20025;-67
2021/04/27 06:07:12;;;;;;;5.53;3.25;;;6.10;57.90;;;;;;5070699;28;20032;-70
2021/04/27 06:09:38;;;;;;;6.40;3.80;;;6.30;57.50;;;;;;5069775;28;20029;-69
2021/04/27 06:12:05;;;;;;;6.13;3.00;;;6.30;57.00;;;;;;5070134;28;20024;-69
2021/04/27 06:14:30;;;;;;;5.80;3.17;;;6.40;56.80;;;;;;5071168;28;20040;-68
2021/04/27 06:16:56;;;;;;;8.77;3.10;;;6.40;57.00;;;;;;5067984;28;20024;-69
2021/04/27 06:19:22;;;;;;;12.93;3.28;;;6.50;57.10;;;;;;5057036;28;20411;-69
2021/04/27 06:21:47;;;;;;;8.45;3.67;;;6.70;56.20;;;;;;5068754;28;20367;-69
2021/04/27 06:24:14;;;;;;;6.75;3.45;;;6.80;55.90;;;;;;5069202;28;20035;-69
2021/04/27 06:26:40;;;;;;;7.35;2.90;;;6.70;55.90;;;;;;5070524;28;20086;-69
2021/04/27 06:29:06;;;;;;;6.40;3.20;;;6.80;56.80;;;;;;5069055;28;20162;-70
2021/04/27 06:31:32;;;;;;;12.65;3.60;;;6.90;55.80;;;;;;5071011;28;20107;-69
2021/04/27 06:33:58;;;;;;;8.15;3.83;;;6.90;55.40;;;;;;5069968;28;20032;-68
2021/04/27 06:36:24;;;;;;;8.15;4.20;;;7.00;55.60;;;;;;5069964;28;20032;-61
2021/04/27 06:38:50;;;;;;;7.70;3.70;;;7.20;54.70;;;;;;5073993;28;20301;-66
2021/04/27 06:41:17;;;;;;;9.60;3.60;;;7.20;54.90;;;;;;5074144;28;20424;-63
2021/04/27 06:43:43;;;;;;;9.63;4.18;;;7.30;54.50;;;;;;5074127;28;20475;-64
2021/04/27 06:46:09;;;;;;;6.57;3.45;;;7.30;54.60;;;;;;5073383;28;20036;-61
2021/04/27 06:48:35;;;;;;;5.97;3.38;;;7.30;54.70;;;;;;5073826;28;20111;-64
2021/04/27 06:51:06;;;;;;;6.95;3.72;;;7.50;54.70;;;;;;5073279;28;20032;-63
2021/04/27 06:53:31;;;;;;;5.95;3.55;;;7.60;53.60;;;;;;5073029;28;20036;-62
2021/04/27 06:55:57;;;;;;;11.93;4.00;;;7.70;54.20;;;;;;5073111;28;20025;-62
2021/04/27 06:58:23;;;;;;;6.65;3.47;;;7.70;53.70;;;;;;5073611;28;20497;-62
2021/04/27 07:00:49;;;;;;;6.90;3.83;;;7.70;54.60;;;;;;5073604;28;20532;-65
2021/04/27 07:03:15;;;;;;;5.07;3.20;;;7.90;53.70;;;;;;5072467;28;20373;-61
2021/04/27 07:05:43;;;;;;;10.35;4.10;;;7.80;53.30;;;;;;5074019;28;20024;-59
2021/04/27 07:08:09;;;;;;;7.97;3.63;;;7.90;53.80;;;;;;5072850;28;20150;-62
2021/04/27 07:10:35;;;;;;;6.40;3.92;;;8.00;53.60;;;;;;5072237;28;20115;-63
2021/04/27 07:13:00;;;;;;;7.97;3.80;;;8.10;52.90;;;;;;5063137;28;20045;-63
2021/04/27 07:15:26;;;;;;;11.23;3.60;;;8.20;53.60;;;;;;5051323;28;20021;-66
2021/04/27 07:17:52;;;;;;;6.70;3.75;;;8.30;53.20;;;;;;5067618;28;20032;-63
2021/04/27 07:20:18;;;;;;;9.35;4.07;;;8.40;53.00;;;;;;5073550;28;20131;-63
2021/04/27 07:22:44;;;;;;;11.23;4.05;;;8.50;53.20;;;;;;5073710;28;20104;-62
2021/04/27 07:25:11;;;;;;;9.13;4.10;;;8.60;53.20;;;;;;5072769;28;20839;-63
2021/04/27 07:27:37;;;;;;;7.90;4.22;;;8.70;52.90;;;;;;5073470;28;20564;-63
2021/04/27 07:30:05;;;;;;;6.47;4.05;;;8.80;51.90;;;;;;5072627;28;20119;-64
2021/04/27 07:32:31;;;;;;;9.25;4.00;;;9.00;51.90;;;;;;5073374;28;20028;-63
2021/04/27 07:34:57;;;;;;;8.07;3.92;;;9.20;52.10;;;;;;5072451;28;20462;-62
2021/04/27 07:37:22;;;;;;;6.20;3.78;;;9.30;50.00;;;;;;5073076;28;20032;-63
2021/04/27 07:39:48;;;;;;;5.85;4.32;;;9.40;51.40;;;;;;5072574;28;20044;-66
2021/04/27 07:42:14;;;;;;;6.15;4.10;;;9.50;49.30;;;;;;5072913;28;20442;-63
2021/04/27 07:44:40;;;;;;;8.38;4.15;;;9.40;49.80;;;;;;5073398;28;20036;-64
2021/04/27 07:47:05;;;;;;;7.40;4.25;;;9.40;49.80;;;;;;5072137;28;20044;-63
2021/04/27 07:49:31;;;;;;;9.05;4.45;;;9.40;50.30;;;;;;5072586;28;20086;-63
2021/04/27 07:51:57;;;;;;;8.85;4.43;;;9.30;50.20;;;;;;5072326;28;20056;-63
2021/04/27 07:54:23;;;;;;;11.70;4.57;;;9.40;50.60;;;;;;5072871;28;20028;-63
2021/04/27 07:56:49;;;;;;;8.60;4.20;;;9.60;50.60;;;;;;5072398;28;20029;-65
2021/04/27 07:59:15;;;;;;;7.22;4.50;;;9.70;50.10;;;;;;5071892;28;20424;-62
2021/04/27 08:01:41;;;;;;;7.65;4.20;;;9.80;49.00;;;;;;5072847;28;20470;-63
2021/04/27 08:04:07;;;;;;;9.77;4.60;;;9.90;49.40;;;;;;5072346;28;20116;-63
2021/04/27 08:06:33;;;;;;;10.18;4.75;;;9.90;49.70;;;;;;5068690;28;20028;-65
2021/04/27 08:09:00;;;;;;;7.72;3.83;;;10.10;49.70;;;;;;5068683;28;20031;-66
2021/04/27 08:11:26;;;;;;;6.57;4.25;;;10.10;49.10;;;;;;5051525;28;20415;-63
2021/04/27 08:13:51;;;;;;;8.77;4.35;;;10.10;48.80;;;;;;5061159;28;20104;-66
2021/04/27 08:16:17;;;;;;;5.93;4.45;;;10.30;48.70;;;;;;5072596;28;20104;-62
2021/04/27 08:18:43;;;;;;;10.82;5.25;;;10.40;47.80;;;;;;5072202;28;20416;-64
2021/04/27 08:21:11;;;;;;;9.25;5.38;;;10.50;48.30;;;;;;5071579;28;20170;-62
2021/04/27 08:23:37;;;;;;;6.45;4.45;;;10.60;47.90;;;;;;5071975;28;20052;-62
2021/04/27 08:26:09;;;;;;;8.48;4.95;;;10.50;47.70;;;;;;5071527;28;20029;-63
2021/04/27 08:28:35;;;;;;;9.80;5.10;;;10.60;48.30;;;;;;5072350;28;20033;-63
2021/04/27 08:31:00;;;;;;;9.45;4.90;;;10.80;48.40;;;;;;5071144;28;20431;-63
2021/04/27 08:33:26;;;;;;;8.18;4.68;;;10.90;47.60;;;;;;5072078;28;20031;-63
2021/04/27 08:35:53;;;;;;;9.48;4.90;;;11.00;48.20;;;;;;5071662;28;20031;-66
2021/04/27 08:38:19;;;;;;;9.93;5.13;;;11.00;47.10;;;;;;5070756;28;20377;-63
2021/04/27 08:40:45;;;;;;;9.20;5.15;;;11.00;47.40;;;;;;5072053;28;20039;-64
2021/04/27 08:43:13;;;;;;;9.48;5.20;;;11.20;47.30;;;;;;5071142;28;20206;-64
2021/04/27 08:45:40;;;;;;;9.82;5.10;;;11.30;47.50;;;;;;5071918;28;20043;-64
2021/04/27 08:48:09;;;;;;;11.27;5.72;;;11.40;46.90;;;;;;5065878;28;20082;-63
2021/04/27 08:50:35;;;;;;;8.32;5.20;;;11.50;46.60;;;;;;5071959;28;20086;-66
2021/04/27 08:53:02;;;;;;;7.88;5.22;;;11.70;45.70;;;;;;5071164;28;20037;-64
2021/04/27 08:55:27;;;;;;;13.88;5.20;;;11.80;46.50;;;;;;5071748;28;20074;-64
2021/04/27 08:57:53;;;;;;;9.25;5.50;;;11.90;46.40;;;;;;5071024;28;20401;-67
2021/04/27 09:00:20;;;;;;;10.68;5.45;;;12.10;46.10;;;;;;5066351;28;20111;-64
2021/04/27 09:02:57;;;;;;;6.93;5.03;;;12.00;46.10;;;;;;5065451;28;20103;-64
2021/04/27 09:05:26;;;;;;;9.05;5.07;;;12.00;45.60;;;;;;5070664;28;20088;-63
2021/04/27 09:07:53;;;;;;;8.18;5.30;;;12.10;45.50;;;;;;5071478;28;20060;-66
2021/04/27 09:10:23;;;;;;;7.65;5.47;;;12.20;45.20;;;;;;5071247;28;20106;-64
2021/04/27 09:12:51;;;;;;;10.53;5.57;;;12.20;45.80;;;;;;5071674;28;20036;-64
2021/04/27 09:15:26;;;;;;;11.73;5.55;;;12.30;45.70;;;;;;5070859;28;20316;-64
2021/04/27 09:17:52;;;;;;;12.00;5.72;;;12.50;45.20;;;;;;5071209;28;20081;-66
2021/04/27 09:20:17;;;;;;;8.13;5.13;;;12.60;45.80;;;;;;5070907;28;20463;-63
2021/04/27 09:22:43;;;;;;;12.38;5.57;;;12.50;45.50;;;;;;5071612;28;20458;-64
2021/04/27 09:25:10;;;;;;;9.48;5.38;;;12.60;45.20;;;;;;5070864;28;20381;-63
2021/04/27 09:27:45;;;;;;;11.10;5.57;;;12.80;45.40;;;;;;5071479;28;20078;-64
2021/04/27 09:30:10;;;;;;;11.32;5.93;;;13.10;44.00;;;;;;5070726;28;20040;-64
2021/04/27 09:32:45;;;;;;;14.93;5.95;;;13.10;44.00;;;;;;5071341;28;20466;-61
2021/04/27 09:35:32;;;;;;;10.95;5.65;;;13.30;44.70;;;;;;5071001;28;20028;-62
2021/04/27 09:38:06;;;;;;;9.57;5.55;;;13.30;43.90;;;;;;5070788;28;20378;-63
2021/04/27 09:40:42;;;;;;;9.82;5.65;;;13.30;44.70;;;;;;5071653;28;20048;-64
2021/04/27 09:43:08;;;;;;;15.35;6.38;;;13.30;43.50;;;;;;5070522;28;20112;-64
2021/04/27 09:45:41;;;;;;;7.47;5.85;;;13.40;44.00;;;;;;5071070;28;20154;-64
2021/04/27 09:48:08;;;;;;;8.60;5.72;;;13.60;44.30;;;;;;5065162;28;20109;-63
2021/04/27 09:50:34;;;;;;;12.68;6.32;;;13.60;43.70;;;;;;5071275;28;20087;-64
2021/04/27 09:53:01;;;;;;;8.65;5.80;;;13.70;43.60;;;;;;5070748;28;20037;-64
2021/04/27 09:55:31;;;;;;;15.50;5.78;;;13.80;43.50;;;;;;5066258;28;20064;-64
2021/04/27 09:57:58;;;;;;;9.70;6.13;;;13.80;43.60;;;;;;5069494;28;20475;-66
2021/04/27 10:00:38;;;;;;;9.80;6.28;;;13.80;43.20;;;;;;5070928;28;20070;-63
2021/04/27 10:03:05;;;;;;;;;;;14.00;43.00;;;;;;5070664;28;20029;-64
2021/04/27 10:05:33;;;;;;;7.60;5.38;;;14.00;43.10;;;;;;5070941;28;20018;-64
2021/04/27 10:07:59;;;;;;;10.45;6.65;;;14.10;42.70;;;;;;5070085;28;20440;-63
2021/04/27 10:10:31;;;;;;;9.73;7.07;;;14.30;42.70;;;;;;5071079;28;20477;-63
2021/04/27 10:12:59;;;;;;;9.38;6.88;;;14.20;42.00;;;;;;5074371;28;20039;-67
2021/04/27 10:15:25;;;;;;;12.00;7.15;;;14.20;42.50;;;;;;5072224;28;20029;-63
2021/04/27 10:17:51;;;;;;;10.52;6.60;;;14.40;42.50;;;;;;5075164;28;20032;-62
2021/04/27 10:20:17;;;;;;;10.13;7.00;;;14.40;42.00;;;;;;5074548;28;20061;-63
2021/04/27 10:22:45;;;;;;;12.77;6.85;;;14.50;42.00;;;;;;5074435;28;20025;-63
2021/04/27 10:25:14;;;;;;;12.18;7.30;;;14.60;41.40;;;;;;5073721;28;20024;-63
2021/04/27 10:27:40;;;;;;;10.38;7.07;;;14.80;41.30;;;;;;5074490;28;20028;-63
2021/04/27 10:30:17;;;;;;;11.45;7.85;;;14.90;41.70;;;;;;5073577;28;20466;-64
2021/04/27 10:33:00;;;;;;;12.60;7.05;;;15.00;40.80;;;;;;5074332;28;20530;-63
2021/04/27 10:35:27;;;;;;;12.70;7.53;;;15.10;41.00;;;;;;5074128;28;20028;-63
2021/04/27 10:38:05;;;;;;;9.93;6.53;;;15.40;40.30;;;;;;5074204;28;20028;-63
2021/04/27 10:40:43;;;;;;;10.90;7.25;;;15.40;39.60;;;;;;5074354;28;20047;-63
2021/04/27 10:43:24;;;;;;;13.18;8.18;;;15.30;39.80;;;;;;5073436;28;20385;-63
2021/04/27 10:45:53;;;;;;;13.55;7.13;;;15.30;40.10;;;;;;5073860;28;20389;-63
2021/04/27 10:48:28;;;;;;;12.20;7.10;;;15.40;39.70;;;;;;5073014;28;20054;-62
2021/04/27 10:50:54;;;;;;;11.35;7.03;;;15.50;39.50;;;;;;5053950;28;20118;-63
2021/04/27 10:53:36;;;;;;;11.32;7.65;;;15.70;39.30;;;;;;5052961;28;20032;-63
2021/04/27 10:56:04;;;;;;;8.50;6.50;;;16.00;38.90;;;;;;5053239;28;20029;-63
2021/04/27 10:58:55;;;;;;;9.52;7.32;;;16.20;39.10;;;;;;5053647;28;20397;-63
2021/04/27 11:01:29;;;;;;;9.75;7.15;;;16.40;37.60;;;;;;5053455;28;20090;-63
2021/04/27 11:03:56;;;;;;;12.05;7.32;;;16.60;37.20;;;;;;5053761;28;20108;-65
2021/04/27 11:06:23;;;;;;;9.27;7.30;;;16.60;38.10;;;;;;5053261;28;20116;-63
2021/04/27 11:08:56;;;;;;;9.05;6.82;;;16.60;37.30;;;;;;5054176;28;20044;-62
2021/04/27 11:11:33;;;;;;;13.27;7.47;;;16.80;37.10;;;;;;5053405;28;20037;-63
2021/04/27 11:14:19;;;;;;;14.15;7.75;;;17.10;35.80;;;;;;5053248;28;20036;-66
2021/04/27 11:16:54;;;;;;;12.50;7.40;;;17.30;35.20;;;;;;5053873;28;20071;-63
2021/04/27 11:19:22;;;;;;;8.82;7.30;;;17.30;34.70;;;;;;5054593;28;20032;-64
2021/04/27 11:21:53;;;;;;;11.85;7.82;;;17.50;34.10;;;;;;5074205;28;20485;-63
2021/04/27 11:24:36;;;;;;;11.98;7.68;;;17.60;34.60;;;;;;5072881;28;20602;-64
2021/04/27 11:27:03;;;;;;;12.05;7.45;;;17.70;34.60;;;;;;5072637;28;20030;-64
2021/04/27 11:29:31;;;;;;;12.38;7.78;;;17.90;34.20;;;;;;5073582;28;20457;-63
2021/04/27 11:32:07;;;;;;;10.68;7.55;;;18.10;33.60;;;;;;5073273;28;20033;-64
2021/04/27 11:35:09;;;;;;;12.65;7.43;;;18.40;33.70;;;;;;5073283;28;20021;-63
2021/04/27 11:37:44;;;;;;;15.10;7.38;;;18.50;33.90;;;;;;5073103;28;20025;-63
2021/04/27 11:40:21;;;;;;;12.27;7.72;;;18.80;32.70;;;;;;5072570;28;20040;-63
2021/04/27 11:42:59;;;;;;;12.70;7.82;;;18.90;32.40;;;;;;5070910;28;20064;-62
2021/04/27 11:45:30;;;;;;;14.30;7.78;;;19.10;32.10;;;;;;5053535;28;20033;-64
2021/04/27 11:47:56;;;;;;;8.90;7.47;;;19.10;32.70;;;;;;5066348;28;20474;-64
2021/04/27 11:50:28;;;;;;;10.30;7.35;;;19.10;31.80;;;;;;5072131;28;20078;-63
2021/04/27 11:53:04;;;;;;;13.23;7.93;;;18.90;32.10;;;;;;5073205;28;20036;-63
2021/04/27 11:55:38;;;;;;;10.98;6.85;;;18.90;32.40;;;;;;5071834;28;20031;-63
2021/04/27 11:58:16;;;;;;;12.85;8.82;;;18.90;31.80;;;;;;5072103;28;20045;-63
2021/04/27 12:00:54;;;;;;;10.80;6.90;;;18.90;32.20;;;;;;5072601;28;20090;-63
2021/04/27 12:03:52;;;;;;;10.05;7.32;;;18.80;32.30;;;;;;5072031;28;20035;-64
2021/04/27 12:06:19;;;;;;;10.18;6.72;;;19.00;31.10;;;;;;5037954;28;20072;-64
2021/04/27 12:08:53;;;;;;;15.07;8.20;;;19.10;30.90;;;;;;5064478;28;20032;-63
2021/04/27 12:11:23;;;;;;;13.00;8.10;;;19.30;30.80;;;;;;5065854;28;20663;-64
2021/04/27 12:13:57;;;;;;;10.90;8.18;;;19.30;31.30;;;;;;5071233;28;20530;-63
2021/04/27 12:16:24;;;;;;;17.58;7.72;;;19.40;30.30;;;;;;5051744;28;20036;-63
2021/04/27 12:18:56;;;;;;;13.27;7.35;;;19.60;30.80;;;;;;5069250;28;20035;-63
2021/04/27 12:21:37;;;;;;;10.18;6.97;;;19.60;30.90;;;;;;5071506;28;20028;-63
2021/04/27 12:24:09;;;;;;;9.10;7.22;;;19.60;31.00;;;;;;5071718;28;20031;-64
2021/04/27 12:26:37;;;;;;;10.07;7.95;;;19.70;30.50;;;;;;5065830;28;20025;-61
2021/04/27 12:29:03;;;;;;;9.13;6.90;;;20.00;30.00;;;;;;5051664;28;20052;-67
2021/04/27 12:31:31;;;;;;;12.25;7.18;;;20.20;30.00;;;;;;5052260;28;20104;-63
2021/04/27 12:33:58;;;;;;;10.63;7.60;;;20.30;29.60;;;;;;5053978;28;20064;-62
2021/04/27 12:36:42;;;;;;;9.98;6.75;;;20.40;29.30;;;;;;5066323;28;20029;-64
2021/04/27 12:39:23;;;;;;;13.68;6.93;;;20.60;29.80;;;;;;5050590;28;20041;-64
2021/04/27 12:41:54;;;;;;;14.70;6.95;;;20.80;28.50;;;;;;5051327;28;20017;-65
2021/04/27 12:44:30;;;;;;;10.70;6.97;;;20.40;29.00;;;;;;5061424;28;20139;-66
2021/04/27 12:46:57;;;;;;;11.50;6.45;;;20.30;29.30;;;;;;5062996;28;20037;-67
2021/04/27 12:49:28;;;;;;;8.18;6.28;;;20.40;29.40;;;;;;5069161;28;20032;-63
2021/04/27 12:52:07;;;;;;;8.80;5.78;;;20.70;28.90;;;;;;5064114;28;20547;-69
2021/04/27 12:54:34;;;;;;;8.30;6.90;;;21.00;28.30;;;;;;5053514;28;20028;-68
2021/04/27 12:57:11;;;;;;;9.75;6.50;;;21.20;28.40;;;;;;5051384;28;20426;-70